createdAt,value
2018-01-01T00:02:46.445Z,11.20
2018-01-01T00:07:49.897Z,11.10
2018-01-01T00:12:53.336Z,11.10
2018-01-01T00:17:56.187Z,11.00
2018-01-01T00:23:00.347Z,10.70
2018-01-01T00:28:03.348Z,10.70
2018-01-01T00:33:06.580Z,10.70
2018-01-01T00:38:09.457Z,10.70
2018-01-01T00:43:12.433Z,10.90
2018-01-01T00:48:15.285Z,11.00
2018-01-01T00:53:18.113Z,11.10
2018-01-01T00:58:21.129Z,11.20
2018-01-01T01:03:24.066Z,11.40
2018-01-01T01:08:27.529Z,11.60
2018-01-01T01:13:31.146Z,11.50
2018-01-01T01:18:34.023Z,11.70
2018-01-01T01:23:37.881Z,11.70
2018-01-01T01:28:44.579Z,11.70
2018-01-01T01:33:47.563Z,11.90
2018-01-01T01:38:50.388Z,12.00
2018-01-01T01:43:53.686Z,12.10
2018-01-01T01:48:56.391Z,12.20
2018-01-01T01:53:59.785Z,12.20
2018-01-01T01:59:03.415Z,12.10
2018-01-01T02:04:06.787Z,12.10
2018-01-01T02:09:09.582Z,12.10
2018-01-01T02:14:12.951Z,12.20
2018-01-01T02:19:15.675Z,12.30
2018-01-01T02:24:19.089Z,12.30
2018-01-01T02:29:21.737Z,12.40
2018-01-01T02:34:25.357Z,12.30
2018-01-01T02:39:27.970Z,12.30
2018-01-01T02:44:32.436Z,12.20
2018-01-01T02:49:35.129Z,12.20
2018-01-01T02:54:38.444Z,12.20
2018-01-01T02:59:42.168Z,12.10
2018-01-01T03:04:45.015Z,12.20
2018-01-01T03:09:48.014Z,12.20
2018-01-01T03:14:51.219Z,12.30
2018-01-01T03:19:53.966Z,12.30
2018-01-01T03:24:56.727Z,12.40
2018-01-01T03:30:00.015Z,12.40
2018-01-01T03:35:02.894Z,12.50
2018-01-01T03:40:06.324Z,12.40
2018-01-01T03:45:10.643Z,12.50
2018-01-01T03:50:13.313Z,12.40
2018-01-01T03:55:16.996Z,12.50
2018-01-01T04:00:19.690Z,12.50
2018-01-01T04:05:23.434Z,12.50
2018-01-01T04:10:26.073Z,12.50
2018-01-01T04:15:29.386Z,12.50
2018-01-01T04:20:32.052Z,12.50
2018-01-01T04:25:35.449Z,12.50
2018-01-01T04:30:38.065Z,12.40
2018-01-01T04:35:41.513Z,12.20
2018-01-01T04:40:44.573Z,12.00
2018-01-01T04:45:47.680Z,11.70
2018-01-01T04:50:51.302Z,11.40
2018-01-01T04:55:54.107Z,11.30
2018-01-01T05:00:56.950Z,11.00
2018-01-01T05:06:00.118Z,10.90
2018-01-01T05:11:02.731Z,10.90
2018-01-01T05:16:05.618Z,10.90
2018-01-01T05:21:09.050Z,10.70
2018-01-01T05:26:12.062Z,10.70
2018-01-01T05:31:14.867Z,10.60
2018-01-01T05:36:17.787Z,10.50
2018-01-01T05:41:20.557Z,10.10
2018-01-01T05:46:23.892Z,9.80
2018-01-01T05:51:26.618Z,9.70
2018-01-01T05:56:29.467Z,9.70
2018-01-01T06:01:33.000Z,9.60
2018-01-01T06:06:35.978Z,9.60
2018-01-01T06:11:38.629Z,9.70
2018-01-01T06:16:42.138Z,9.80
2018-01-01T06:21:44.828Z,9.70
2018-01-01T06:26:47.868Z,9.60
2018-01-01T06:31:50.621Z,9.60
2018-01-01T06:36:54.375Z,9.50
2018-01-01T06:41:57.060Z,9.50
2018-01-01T06:47:00.118Z,9.30
2018-01-01T06:52:03.074Z,8.80
2018-01-01T06:57:05.880Z,8.70
2018-01-01T07:02:08.505Z,8.60
2018-01-01T07:07:12.198Z,8.40
2018-01-01T07:12:14.878Z,8.30
2018-01-01T07:17:18.771Z,8.30
2018-01-01T07:22:21.419Z,8.20
2018-01-01T07:27:25.785Z,8.20
2018-01-01T07:32:28.622Z,8.20
2018-01-01T07:37:31.937Z,8.30
2018-01-01T07:42:34.789Z,8.30
2018-01-01T07:47:38.055Z,8.20
2018-01-01T07:52:41.009Z,8.20
2018-01-01T07:57:43.819Z,8.30
2018-01-01T08:02:47.095Z,8.30
2018-01-01T08:07:50.757Z,8.50
2018-01-01T08:12:53.553Z,8.50
2018-01-01T08:17:57.275Z,8.60
2018-01-01T08:23:00.677Z,8.70
2018-01-01T08:28:05.565Z,8.70
2018-01-01T08:33:08.344Z,8.70
2018-01-01T08:38:11.317Z,8.70
2018-01-01T08:43:14.032Z,8.70
2018-01-01T08:48:17.823Z,8.60
2018-01-01T08:53:20.573Z,8.60
2018-01-01T08:58:24.048Z,8.60
2018-01-01T09:03:26.817Z,8.60
2018-01-01T09:08:30.133Z,8.50
2018-01-01T09:13:33.459Z,8.50
2018-01-01T09:18:37.050Z,8.60
2018-01-01T09:23:39.757Z,8.70
2018-01-01T09:28:43.213Z,8.90
2018-01-01T09:33:46.089Z,9.10
2018-01-01T09:38:49.838Z,9.00
2018-01-01T09:43:53.589Z,9.00
2018-01-01T09:48:56.666Z,8.90
2018-01-01T09:54:00.287Z,9.00
2018-01-01T09:59:03.201Z,9.00
2018-01-01T10:04:06.993Z,9.00
2018-01-01T10:09:16.742Z,9.10
2018-01-01T10:14:20.665Z,9.10
2018-01-01T10:19:24.904Z,9.30
2018-01-01T10:24:28.336Z,9.50
2018-01-01T10:29:31.608Z,9.50
2018-01-01T10:34:34.370Z,9.40
2018-01-01T10:39:37.422Z,9.40
2018-01-01T10:44:40.364Z,9.40
2018-01-01T10:49:44.948Z,9.30
2018-01-01T10:54:48.594Z,9.30
2018-01-01T10:59:52.456Z,9.40
2018-01-01T11:04:55.589Z,9.50
2018-01-01T11:09:59.084Z,9.60
2018-01-01T11:15:02.818Z,10.10
2018-01-01T11:20:06.280Z,10.40
2018-01-01T11:25:09.026Z,9.90
2018-01-01T11:30:13.374Z,9.50
2018-01-01T11:35:16.106Z,9.50
2018-01-01T11:40:19.298Z,9.90
2018-01-01T11:45:23.219Z,9.90
2018-01-01T11:50:26.137Z,9.90
2018-01-01T11:55:28.929Z,9.90
2018-01-01T12:00:33.568Z,9.80
2018-01-01T12:05:36.302Z,9.70
2018-01-01T12:10:39.690Z,9.50
2018-01-01T12:15:42.480Z,9.60
2018-01-01T12:20:45.592Z,9.70
2018-01-01T12:25:49.111Z,9.40
2018-01-01T12:30:52.776Z,9.40
2018-01-01T12:35:56.797Z,9.60
2018-01-01T12:41:03.051Z,10.30
2018-01-01T12:46:11.456Z,10.00
2018-01-01T12:51:15.522Z,9.70
2018-01-01T12:56:22.113Z,9.60
2018-01-01T13:01:25.441Z,9.50
2018-01-01T13:06:28.227Z,9.60
2018-01-01T13:11:32.871Z,9.50
2018-01-01T13:16:35.678Z,9.60
2018-01-01T13:21:38.601Z,9.60
2018-01-01T13:26:41.277Z,9.60
2018-01-01T13:31:44.802Z,9.50
2018-01-01T13:36:47.570Z,9.50
2018-01-01T13:41:52.532Z,10.10
2018-01-01T13:46:55.902Z,11.40
2018-01-01T13:51:59.440Z,11.80
2018-01-01T13:57:03.343Z,10.30
2018-01-01T14:02:06.852Z,9.70
2018-01-01T14:07:09.782Z,9.40
2018-01-01T14:12:14.950Z,9.60
2018-01-01T14:17:18.670Z,9.40
2018-01-01T14:22:23.694Z,8.90
2018-01-01T14:27:27.314Z,8.90
2018-01-01T14:32:30.805Z,8.60
2018-01-01T14:37:34.241Z,8.40
2018-01-01T14:42:37.677Z,7.90
2018-01-01T14:47:40.462Z,7.90
2018-01-01T14:52:43.699Z,7.70
2018-01-01T14:57:47.197Z,7.50
2018-01-01T15:02:50.590Z,7.20
2018-01-01T15:07:53.358Z,7.10
2018-01-01T15:12:57.179Z,6.90
2018-01-01T15:18:00.040Z,6.80
2018-01-01T15:23:03.111Z,6.80
2018-01-01T15:28:06.495Z,6.60
2018-01-01T15:33:09.478Z,6.50
2018-01-01T15:38:12.302Z,6.50
2018-01-01T15:43:16.319Z,6.50
2018-01-01T15:48:19.530Z,6.40
2018-01-01T15:53:22.533Z,6.30
2018-01-01T15:58:25.336Z,6.30
2018-01-01T16:03:30.192Z,6.10
2018-01-01T16:08:32.962Z,6.20
2018-01-01T16:13:37.010Z,6.00
2018-01-01T16:18:40.501Z,6.00
2018-01-01T16:23:43.388Z,6.00
2018-01-01T16:28:46.198Z,6.00
2018-01-01T16:33:50.588Z,6.50
2018-01-01T16:38:53.394Z,6.20
2018-01-01T16:43:56.210Z,6.10
2018-01-01T16:48:59.464Z,6.10
2018-01-01T16:54:03.016Z,6.20
2018-01-01T16:59:06.755Z,6.50
2018-01-01T17:04:10.011Z,6.40
2018-01-01T17:09:12.974Z,6.50
2018-01-01T17:14:16.386Z,6.40
2018-01-01T17:19:26.363Z,6.40
2018-01-01T17:24:29.361Z,6.30
2018-01-01T17:29:32.143Z,6.20
2018-01-01T17:34:36.114Z,5.90
2018-01-01T17:39:38.869Z,5.90
2018-01-01T17:44:42.134Z,6.50
2018-01-01T17:49:44.964Z,6.10
2018-01-01T17:54:51.459Z,5.80
2018-01-01T17:59:58.810Z,5.80
2018-01-01T18:05:04.243Z,5.80
2018-01-01T18:10:07.965Z,5.70
2018-01-01T18:15:11.643Z,5.60
2018-01-01T18:20:17.212Z,5.80
2018-01-01T18:25:20.193Z,5.90
2018-01-01T18:30:22.909Z,6.00
2018-01-01T18:35:26.197Z,6.10
2018-01-01T18:40:29.858Z,6.40
2018-01-01T18:45:33.364Z,6.40
2018-01-01T18:50:36.269Z,6.50
2018-01-01T18:55:39.430Z,6.50
2018-01-01T19:00:43.666Z,6.70
2018-01-01T19:05:46.465Z,6.70
2018-01-01T19:10:49.346Z,6.80
2018-01-01T19:15:53.042Z,6.70
2018-01-01T19:20:55.941Z,6.80
2018-01-01T19:25:58.868Z,6.70
2018-01-01T19:31:01.572Z,6.60
2018-01-01T19:36:05.071Z,6.60
2018-01-01T19:41:07.971Z,6.40
2018-01-01T19:46:11.391Z,6.30
2018-01-01T19:51:14.198Z,6.20
2018-01-01T19:56:17.611Z,6.10
2018-01-01T20:01:21.443Z,5.90
2018-01-01T20:06:24.957Z,5.60
2018-01-01T20:11:27.714Z,5.30
2018-01-01T20:16:31.689Z,5.10
2018-01-01T20:21:34.410Z,5.10
2018-01-01T20:26:37.497Z,4.90
2018-01-01T20:31:40.212Z,4.70
2018-01-01T20:36:43.334Z,4.70
2018-01-01T20:41:46.125Z,4.70
2018-01-01T20:46:50.766Z,4.70
2018-01-01T20:51:53.542Z,4.40
2018-01-01T20:56:57.675Z,4.30
2018-01-01T21:02:01.113Z,4.40
2018-01-01T21:07:05.592Z,4.40
2018-01-01T21:12:08.374Z,4.40
2018-01-01T21:17:11.678Z,4.40
2018-01-01T21:22:14.677Z,4.60
2018-01-01T21:27:18.095Z,4.80
2018-01-01T21:32:22.019Z,5.00
2018-01-01T21:37:25.372Z,5.10
2018-01-01T21:42:28.179Z,5.00
2018-01-01T21:47:31.477Z,5.10
2018-01-01T21:52:34.253Z,5.20
2018-01-01T21:57:37.256Z,5.20
2018-01-01T22:02:39.932Z,5.10
2018-01-01T22:07:43.509Z,5.10
2018-01-01T22:12:46.173Z,5.10
2018-01-01T22:17:51.343Z,5.20
2018-01-01T22:22:55.679Z,5.10
2018-01-01T22:27:59.257Z,5.10
2018-01-01T22:33:03.457Z,5.00
2018-01-01T22:38:06.564Z,4.90
2018-01-01T22:43:09.555Z,4.80
2018-01-01T22:48:12.582Z,4.90
2018-01-01T22:53:15.353Z,4.60
2018-01-01T22:58:19.429Z,4.40
2018-01-01T23:03:22.713Z,4.40
2018-01-01T23:08:25.983Z,4.50
2018-01-01T23:13:28.823Z,4.40
2018-01-01T23:18:32.860Z,4.40
2018-01-01T23:23:35.550Z,4.40
2018-01-01T23:28:39.737Z,4.40
2018-01-01T23:33:42.482Z,4.40
2018-01-01T23:38:46.151Z,4.60
2018-01-01T23:43:48.814Z,4.60
2018-01-01T23:48:52.752Z,4.50
2018-01-01T23:53:55.524Z,4.50
2018-01-01T23:58:58.773Z,4.60
